createdAt,value
2024-02-21T00:01:18.575Z,102198.09
2024-02-21T00:03:45.189Z,102189.34
2024-02-21T00:06:11.677Z,102194.41
2024-02-21T00:08:38.308Z,102180.06
2024-02-21T00:11:05.263Z,102176.13
2024-02-21T00:13:32.073Z,102170.81
2024-02-21T00:16:04.778Z,102159.94
2024-02-21T00:18:31.340Z,102173.78
2024-02-21T00:20:58.093Z,102162.63
2024-02-21T00:23:24.761Z,102154.66
2024-02-21T00:25:53.326Z,102151.50
2024-02-21T00:28:19.926Z,102161.63
2024-02-21T00:30:48.624Z,102166.91
2024-02-21T00:33:15.287Z,102163.69
2024-02-21T00:35:41.979Z,102147.78
2024-02-21T00:38:08.474Z,102152.28
2024-02-21T00:40:36.210Z,102150.44
2024-02-21T00:43:02.850Z,102148.84
2024-02-21T00:45:30.396Z,102151.50
2024-02-21T00:47:56.894Z,102145.13
2024-02-21T00:50:23.488Z,102146.19
2024-02-21T00:52:50.228Z,102156.53
2024-02-21T00:55:17.095Z,102148.31
2024-02-21T00:57:43.589Z,102149.09
2024-02-21T01:00:10.579Z,102156.00
2024-02-21T01:02:37.153Z,102162.09
2024-02-21T01:05:04.250Z,102172.72
2024-02-21T01:07:30.820Z,102178.00
2024-02-21T01:09:57.623Z,102172.41
2024-02-21T01:12:24.194Z,102174.28
2024-02-21T01:14:50.834Z,102166.31
2024-02-21T01:17:17.312Z,102168.97
2024-02-21T01:19:44.016Z,102157.56
2024-02-21T01:22:10.759Z,102159.44
2024-02-21T01:24:37.290Z,102161.31
2024-02-21T01:27:04.207Z,102153.63
2024-02-21T01:29:30.840Z,102155.50
2024-02-21T01:31:57.377Z,102150.19
2024-02-21T01:34:24.102Z,102144.59
2024-02-21T01:36:50.647Z,102136.09
2024-02-21T01:39:17.189Z,102132.41
2024-02-21T01:41:43.902Z,102137.72
2024-02-21T01:44:10.559Z,102134.53
2024-02-21T01:46:45.083Z,102129.75
2024-02-21T01:49:11.839Z,102114.09
2024-02-21T01:51:39.151Z,102118.34
2024-02-21T01:54:06.576Z,102114.88
2024-02-21T01:56:33.249Z,102098.94
2024-02-21T01:59:00.456Z,102112.22
2024-02-21T02:01:27.615Z,102107.19
2024-02-21T02:03:56.063Z,102107.47
2024-02-21T02:06:22.841Z,102102.97
2024-02-21T02:08:49.598Z,102111.72
2024-02-21T02:11:16.441Z,102100.31
2024-02-21T02:13:43.083Z,102097.94
2024-02-21T02:16:09.723Z,102092.63
2024-02-21T02:18:36.652Z,102086.78
2024-02-21T02:21:06.110Z,102086.53
2024-02-21T02:23:33.234Z,102081.50
2024-02-21T02:26:08.274Z,102077.25
2024-02-21T02:28:34.813Z,102066.66
2024-02-21T02:31:01.344Z,102059.78
2024-02-21T02:33:28.034Z,102071.94
2024-02-21T02:35:54.848Z,102072.75
2024-02-21T02:38:21.326Z,102071.94
2024-02-21T02:40:47.842Z,102065.06
2024-02-21T02:43:14.420Z,102060.56
2024-02-21T02:45:41.135Z,102071.94
2024-02-21T02:48:08.306Z,102066.66
2024-02-21T02:50:34.842Z,102054.47
2024-02-21T02:53:01.370Z,102054.47
2024-02-21T02:55:33.916Z,102059.78
2024-02-21T02:58:00.941Z,102054.47
2024-02-21T03:00:27.413Z,102046.00
2024-02-21T03:02:53.923Z,102042.56
2024-02-21T03:05:22.403Z,102039.09
2024-02-21T03:07:50.157Z,102030.09
2024-02-21T03:10:20.278Z,102035.38
2024-02-21T03:12:47.298Z,102024.78
2024-02-21T03:15:15.178Z,102027.44
2024-02-21T03:17:42.751Z,102022.63
2024-02-21T03:20:11.457Z,102026.34
2024-02-21T03:22:39.217Z,102019.47
2024-02-21T03:25:06.807Z,102020.50
2024-02-21T03:27:33.329Z,102012.84
2024-02-21T03:29:59.805Z,102011.56
2024-02-21T03:32:26.497Z,102007.81
2024-02-21T03:34:53.114Z,102003.59
2024-02-21T03:37:19.797Z,101992.19
2024-02-21T03:39:46.672Z,101989.81
2024-02-21T03:42:13.147Z,101981.84
2024-02-21T03:44:40.038Z,101984.00
2024-02-21T03:47:06.697Z,101982.41
2024-02-21T03:49:33.270Z,101975.53
2024-02-21T03:51:59.738Z,101976.59
2024-02-21T03:54:26.194Z,101977.66
2024-02-21T03:56:52.721Z,101977.66
2024-02-21T03:59:19.472Z,101972.63
2024-02-21T04:01:45.956Z,101975.28
2024-02-21T04:04:12.655Z,101974.00
2024-02-21T04:06:48.192Z,101979.00
2024-02-21T04:09:14.698Z,101978.22
2024-02-21T04:11:41.292Z,101979.81
2024-02-21T04:14:08.428Z,101984.31
2024-02-21T04:16:36.124Z,101972.13
2024-02-21T04:19:03.366Z,101963.38
2024-02-21T04:21:30.304Z,101959.13
2024-02-21T04:23:56.834Z,101958.34
2024-02-21T04:26:23.300Z,101956.47
2024-02-21T04:28:49.866Z,101957.06
2024-02-21T04:31:16.543Z,101955.19
2024-02-21T04:33:43.007Z,101958.91
2024-02-21T04:36:11.573Z,101948.56
2024-02-21T04:38:40.084Z,101950.44
2024-02-21T04:41:06.828Z,101953.38
2024-02-21T04:43:33.911Z,101945.13
2024-02-21T04:46:01.521Z,101951.22
2024-02-21T04:48:28.012Z,101935.31
2024-02-21T04:50:54.507Z,101924.19
2024-02-21T04:53:21.154Z,101921.53
2024-02-21T04:55:48.293Z,101920.75
2024-02-21T04:58:14.945Z,101919.69
2024-02-21T05:00:41.609Z,101922.63
2024-02-21T05:03:08.135Z,101910.16
2024-02-21T05:05:34.722Z,101914.66
2024-02-21T05:08:01.494Z,101920.75
2024-02-21T05:10:28.225Z,101916.25
2024-02-21T05:12:54.779Z,101915.47
2024-02-21T05:15:21.614Z,101919.97
2024-02-21T05:17:48.277Z,101910.94
2024-02-21T05:20:14.932Z,101908.28
2024-02-21T05:22:41.624Z,101902.50
2024-02-21T05:25:09.543Z,101897.19
2024-02-21T05:27:37.107Z,101897.19
2024-02-21T05:30:04.843Z,101890.31
2024-02-21T05:32:31.500Z,101887.66
2024-02-21T05:35:01.566Z,101883.41
2024-02-21T05:37:28.193Z,101875.44
2024-02-21T05:39:54.779Z,101872.00
2024-02-21T05:42:21.485Z,101872.00
2024-02-21T05:44:47.970Z,101866.69
2024-02-21T05:47:16.409Z,101865.91
2024-02-21T05:49:43.233Z,101853.72
2024-02-21T05:52:10.958Z,101847.34
2024-02-21T05:54:41.098Z,101840.47
2024-02-21T05:57:08.867Z,101842.34
2024-02-21T05:59:37.736Z,101848.44
2024-02-21T06:02:05.365Z,101838.91
2024-02-21T06:04:32.246Z,101839.97
2024-02-21T06:07:00.158Z,101837.03
2024-02-21T06:09:26.688Z,101837.03
2024-02-21T06:11:53.293Z,101833.88
2024-02-21T06:14:21.166Z,101833.06
2024-02-21T06:16:47.805Z,101827.28
2024-02-21T06:21:40.758Z,101821.72
2024-02-21T06:24:07.466Z,101830.50
2024-02-21T06:26:33.916Z,101831.03
2024-02-21T06:29:03.732Z,101840.06
2024-02-21T06:31:30.976Z,101839.00
2024-02-21T06:33:57.518Z,101837.44
2024-02-21T06:36:24.196Z,101841.16
2024-02-21T06:38:50.890Z,101844.06
2024-02-21T06:41:20.727Z,101836.41
2024-02-21T06:43:48.253Z,101836.69
2024-02-21T06:46:30.088Z,101835.91
2024-02-21T06:48:57.927Z,101840.66
2024-02-21T06:51:26.152Z,101832.72
2024-02-21T06:53:53.085Z,101833.78
2024-02-21T06:56:20.887Z,101828.00
2024-02-21T06:58:47.418Z,101827.47
2024-02-21T07:01:14.077Z,101821.38
2024-02-21T07:03:40.841Z,101815.03
2024-02-21T07:06:11.729Z,101816.06
2024-02-21T07:08:38.526Z,101817.16
2024-02-21T07:11:05.254Z,101812.91
2024-02-21T07:13:32.033Z,101815.56
2024-02-21T07:16:02.694Z,101811.06
2024-02-21T07:18:29.208Z,101808.41
2024-02-21T07:20:56.646Z,101803.09
2024-02-21T07:23:23.121Z,101794.09
2024-02-21T07:25:49.737Z,101799.38
2024-02-21T07:28:17.512Z,101797.81
2024-02-21T07:30:44.879Z,101790.66
2024-02-21T07:33:11.512Z,101792.50
2024-02-21T07:35:42.577Z,101789.81
2024-02-21T07:38:13.757Z,101786.09
2024-02-21T07:40:40.658Z,101781.88
2024-02-21T07:43:07.203Z,101772.34
2024-02-21T07:45:35.915Z,101765.97
2024-02-21T07:48:03.338Z,101761.16
2024-02-21T07:50:29.994Z,101745.78
2024-02-21T07:52:56.676Z,101737.84
2024-02-21T07:55:26.321Z,101739.41
2024-02-21T07:57:52.820Z,101739.13
2024-02-21T08:00:22.791Z,101729.31
2024-02-21T08:02:52.337Z,101741.22
2024-02-21T08:05:20.116Z,101738.88
2024-02-21T08:07:46.746Z,101745.47
2024-02-21T08:10:13.233Z,101739.09
2024-02-21T08:12:40.026Z,101737.78
2024-02-21T08:15:09.201Z,101723.44
2024-02-21T08:17:35.673Z,101717.56
2024-02-21T08:20:02.188Z,101715.94
2024-02-21T08:22:28.768Z,101721.72
2024-02-21T08:24:55.245Z,101712.72
2024-02-21T08:27:21.832Z,101717.75
2024-02-21T08:29:48.552Z,101712.94
2024-02-21T08:32:15.010Z,101711.88
2024-02-21T08:34:41.489Z,101704.72
2024-02-21T08:37:09.380Z,101699.13
2024-02-21T08:39:36.677Z,101701.78
2024-02-21T08:42:03.587Z,101705.72
2024-02-21T08:44:30.290Z,101696.41
2024-02-21T08:46:58.966Z,101698.78
2024-02-21T08:49:33.400Z,101677.56
2024-02-21T08:52:01.550Z,101666.97
2024-02-21T08:54:28.040Z,101668.53
2024-02-21T08:56:55.442Z,101664.53
2024-02-21T08:59:22.050Z,101669.56
2024-02-21T09:01:48.620Z,101666.91
2024-02-21T09:04:15.165Z,101663.66
2024-02-21T09:06:43.620Z,101664.19
2024-02-21T09:09:11.057Z,101658.88
2024-02-21T09:11:38.198Z,101656.72
2024-02-21T09:14:04.952Z,101660.69
2024-02-21T09:16:33.281Z,101652.91
2024-02-21T09:19:00.461Z,101651.28
2024-02-21T09:21:26.982Z,101651.28
2024-02-21T09:23:55.728Z,101649.72
2024-02-21T09:26:24.487Z,101639.88
2024-02-21T09:28:51.180Z,101634.59
2024-02-21T09:31:17.688Z,101633.78
2024-02-21T09:33:44.220Z,101628.50
2024-02-21T09:36:10.833Z,101616.50
2024-02-21T09:38:37.421Z,101620.94
2024-02-21T09:41:26.870Z,101606.59
2024-02-21T09:43:57.421Z,101607.91
2024-02-21T09:46:53.544Z,101602.59
2024-02-21T09:49:29.232Z,101598.09
2024-02-21T09:51:57.942Z,101586.41
2024-02-21T09:54:24.583Z,101581.38
2024-02-21T09:56:51.154Z,101572.63
2024-02-21T09:59:18.288Z,101568.91
2024-02-21T10:01:48.470Z,101562.22
2024-02-21T10:04:15.275Z,101561.34
2024-02-21T10:06:42.662Z,101552.31
2024-02-21T10:09:09.387Z,101541.91
2024-02-21T10:11:37.333Z,101526.47
2024-02-21T10:14:08.687Z,101527.97
2024-02-21T10:16:35.838Z,101520.53
2024-02-21T10:19:02.520Z,101510.59
2024-02-21T10:21:29.086Z,101515.63
2024-02-21T10:23:55.634Z,101514.13
2024-02-21T10:26:22.225Z,101507.16
2024-02-21T10:28:52.500Z,101505.00
2024-02-21T10:31:26.726Z,101489.75
2024-02-21T10:33:57.379Z,101472.47
2024-02-21T10:36:25.622Z,101470.97
2024-02-21T10:38:53.087Z,101467.44
2024-02-21T10:41:21.661Z,101475.88
2024-02-21T10:43:54.511Z,101459.19
2024-02-21T10:46:23.021Z,101461.03
2024-02-21T10:49:02.323Z,101444.16
2024-02-21T10:51:34.168Z,101445.81
2024-02-21T10:54:18.391Z,101432.84
2024-02-21T10:56:46.054Z,101420.53
2024-02-21T10:59:14.797Z,101409.81
2024-02-21T11:01:41.368Z,101392.50
2024-02-21T11:04:09.509Z,101374.72
2024-02-21T11:06:38.393Z,101366.91
2024-02-21T11:09:10.364Z,101359.44
2024-02-21T11:11:43.862Z,101365.03
2024-02-21T11:14:12.540Z,101416.88
2024-02-21T11:16:42.663Z,101442.88
2024-02-21T11:19:29.758Z,101435.59
2024-02-21T11:22:00.482Z,101432.38
2024-02-21T11:24:35.928Z,101433.25
2024-02-21T11:27:27.430Z,101427.94
2024-02-21T11:29:58.961Z,101410.25
2024-02-21T11:32:26.967Z,101405.53
2024-02-21T11:35:06.187Z,101412.50
2024-02-21T11:37:35.821Z,101406.69
2024-02-21T11:40:04.022Z,101390.59
2024-02-21T11:42:31.613Z,101379.19
2024-02-21T11:44:58.554Z,101373.97
2024-02-21T11:47:25.776Z,101366.03
2024-02-21T11:52:36.051Z,101352.75
2024-02-21T11:55:06.477Z,101351.66
2024-02-21T11:57:33.278Z,101336.84
2024-02-21T12:00:02.138Z,101311.78
2024-02-21T12:02:30.986Z,101291.28
2024-02-21T12:04:57.715Z,101284.09
2024-02-21T12:07:30.064Z,101274.81
2024-02-21T12:10:00.554Z,101260.31
2024-02-21T12:12:27.173Z,101241.81
2024-02-21T12:14:59.395Z,101234.38
2024-02-21T12:17:26.206Z,101230.50
2024-02-21T12:19:52.748Z,101227.09
2024-02-21T12:22:20.706Z,101235.91
2024-02-21T12:24:48.975Z,101228.59
2024-02-21T12:27:15.517Z,101223.44
2024-02-21T12:29:42.350Z,101223.28
2024-02-21T12:32:09.028Z,101200.47
2024-02-21T12:34:44.280Z,101193.28
2024-02-21T12:37:21.135Z,101187.19
2024-02-21T12:39:48.382Z,101167.63
2024-02-21T12:42:15.025Z,101168.41
2024-02-21T12:44:41.573Z,101160.88
2024-02-21T12:47:09.324Z,101160.09
2024-02-21T12:49:36.320Z,101144.31
2024-02-21T12:52:04.723Z,101133.53
2024-02-21T12:54:32.143Z,101130.56
2024-02-21T12:56:59.364Z,101116.81
2024-02-21T12:59:27.047Z,101117.28
2024-02-21T13:01:54.122Z,101104.50
2024-02-21T13:04:21.107Z,101098.84
2024-02-21T13:06:47.757Z,101089.31
2024-02-21T13:09:14.875Z,101080.25
2024-02-21T13:11:42.361Z,101069.50
2024-02-21T13:14:08.992Z,101065.72
2024-02-21T13:16:40.305Z,101066.69
2024-02-21T13:19:11.810Z,101067.47
2024-02-21T13:21:38.565Z,101063.25
2024-02-21T13:24:05.411Z,101057.94
2024-02-21T13:26:31.924Z,101062.75
2024-02-21T13:28:58.446Z,101054.31
2024-02-21T13:31:26.317Z,101050.44
2024-02-21T13:33:53.406Z,101040.22
2024-02-21T13:36:20.117Z,101026.94
2024-02-21T13:38:48.104Z,101019.59
2024-02-21T13:41:14.731Z,101018.81
2024-02-21T13:43:41.188Z,101007.09
2024-02-21T13:46:10.951Z,100989.28
2024-02-21T13:48:38.239Z,100990.69
2024-02-21T13:51:05.598Z,100977.69
2024-02-21T13:53:32.209Z,100972.56
2024-02-21T13:55:58.940Z,100958.97
2024-02-21T13:58:27.080Z,100949.88
2024-02-21T14:00:54.617Z,100954.59
2024-02-21T14:03:21.539Z,100942.72
2024-02-21T14:05:49.575Z,100940.06
2024-02-21T14:08:16.727Z,100931.59
2024-02-21T14:10:43.573Z,100927.72
2024-02-21T14:13:10.090Z,100913.94
2024-02-21T14:15:38.513Z,100899.88
2024-02-21T14:18:07.052Z,100899.59
2024-02-21T14:20:33.807Z,100889.09
2024-02-21T14:23:00.398Z,100884.56
2024-02-21T14:25:27.066Z,100875.81
2024-02-21T14:27:53.629Z,100856.88
2024-02-21T14:30:20.187Z,100851.13
2024-02-21T14:32:47.002Z,100843.47
2024-02-21T14:35:13.837Z,100825.66
2024-02-21T14:37:40.344Z,100831.41
2024-02-21T14:40:08.225Z,100818.47
2024-02-21T14:42:35.320Z,100812.38
2024-02-21T14:45:07.472Z,100803.47
2024-02-21T14:47:34.623Z,100805.19
2024-02-21T14:50:04.052Z,100790.34
2024-02-21T14:52:30.845Z,100783.00
2024-02-21T14:54:57.677Z,100774.09
2024-02-21T14:57:24.456Z,100763.66
2024-02-21T14:59:53.267Z,100766.13
2024-02-21T15:02:20.291Z,100768.97
2024-02-21T15:04:46.983Z,100744.91
2024-02-21T15:07:13.626Z,100749.47
2024-02-21T15:09:40.344Z,100743.66
2024-02-21T15:12:07.339Z,100738.53
2024-02-21T15:14:33.969Z,100726.97
2024-02-21T15:17:02.772Z,100722.94
2024-02-21T15:19:29.525Z,100703.72
2024-02-21T15:21:57.101Z,100717.16
2024-02-21T15:24:23.566Z,100699.84
2024-02-21T15:26:50.225Z,100683.59
2024-02-21T15:29:16.872Z,100675.81
2024-02-21T15:31:47.897Z,100674.09
2024-02-21T15:34:16.707Z,100653.03
2024-02-21T15:36:43.792Z,100647.09
2024-02-21T15:39:11.765Z,100636.66
2024-02-21T15:41:38.302Z,100628.84
2024-02-21T15:44:05.741Z,100628.38
2024-02-21T15:46:35.113Z,100615.75
2024-02-21T15:49:01.910Z,100612.13
2024-02-21T15:51:28.525Z,100604.06
2024-02-21T15:53:54.991Z,100597.47
2024-02-21T15:56:21.494Z,100585.66
2024-02-21T15:58:48.148Z,100585.97
2024-02-21T16:01:15.213Z,100571.44
2024-02-21T16:03:42.283Z,100567.06
2024-02-21T16:06:10.234Z,100571.59
2024-02-21T16:08:41.702Z,100568.81
2024-02-21T16:11:15.723Z,100557.72
2024-02-21T16:13:42.357Z,100553.06
2024-02-21T16:16:09.857Z,100568.03
2024-02-21T16:18:36.512Z,100545.25
2024-02-21T16:21:03.696Z,100542.91
2024-02-21T16:23:30.740Z,100536.06
2024-02-21T16:25:58.387Z,100537.16
2024-02-21T16:28:26.394Z,100526.88
2024-02-21T16:30:53.029Z,100527.97
2024-02-21T16:33:19.466Z,100521.09
2024-02-21T16:35:46.059Z,100510.03
2024-02-21T16:38:12.941Z,100507.69
2024-02-21T16:40:41.737Z,100507.22
2024-02-21T16:43:08.474Z,100516.25
2024-02-21T16:45:34.970Z,100503.31
2024-02-21T16:48:01.934Z,100499.56
2024-02-21T16:50:28.629Z,100499.91
2024-02-21T16:52:55.950Z,100499.13
2024-02-21T16:55:23.526Z,100496.00
2024-02-21T16:57:50.106Z,100490.69
2024-02-21T17:00:16.989Z,100483.81
2024-02-21T17:02:51.917Z,100465.25
2024-02-21T17:05:25.831Z,100470.09
2024-02-21T17:07:56.049Z,100463.25
2024-02-21T17:10:22.873Z,100461.69
2024-02-21T17:12:49.429Z,100460.91
2024-02-21T17:15:18.973Z,100460.13
2024-02-21T17:17:45.880Z,100453.25
2024-02-21T17:20:12.610Z,100452.50
2024-02-21T17:22:39.172Z,100443.75
2024-02-21T17:25:11.115Z,100443.31
2024-02-21T17:27:38.604Z,100435.38
2024-02-21T17:30:07.179Z,100430.34
2024-02-21T17:32:35.466Z,100429.56
2024-02-21T17:35:06.546Z,100424.28
2024-02-21T17:37:36.759Z,100413.69
2024-02-21T17:40:10.500Z,100417.44
2024-02-21T17:42:37.498Z,100403.41
2024-02-21T17:45:05.322Z,100394.69
2024-02-21T17:47:32.490Z,100397.66
2024-02-21T17:49:59.099Z,100397.66
2024-02-21T17:52:28.365Z,100398.44
2024-02-21T17:54:55.251Z,100392.38
2024-02-21T17:57:21.685Z,100383.31
2024-02-21T17:59:51.209Z,100373.50
2024-02-21T18:02:21.461Z,100366.66
2024-02-21T18:04:51.618Z,100363.69
2024-02-21T18:07:18.254Z,100358.69
2024-02-21T18:09:44.727Z,100357.59
2024-02-21T18:12:11.236Z,100344.34
2024-02-21T18:14:37.714Z,100336.41
2024-02-21T18:17:04.645Z,100333.00
2024-02-21T18:19:36.025Z,100340.16
2024-02-21T18:22:03.474Z,100332.22
2024-02-21T18:24:31.362Z,100322.41
2024-02-21T18:26:58.995Z,100316.31
2024-02-21T18:29:37.769Z,100309.16
2024-02-21T18:32:09.287Z,100310.25
2024-02-21T18:34:36.560Z,100297.78
2024-02-21T18:37:04.653Z,100295.91
2024-02-21T18:39:32.905Z,100302.75
2024-02-21T18:41:59.678Z,100300.44
2024-02-21T18:44:26.205Z,100296.69
2024-02-21T18:46:54.198Z,100283.44
2024-02-21T18:49:21.055Z,100283.88
2024-02-21T18:51:47.905Z,100270.63
2024-02-21T18:54:14.494Z,100254.75
2024-02-21T18:56:45.830Z,100262.69
2024-02-21T18:59:12.503Z,100264.25
2024-02-21T19:01:39.099Z,100247.56
2024-02-21T19:04:05.649Z,100252.56
2024-02-21T19:06:32.220Z,100241.97
2024-02-21T19:08:58.730Z,100232.47
2024-02-21T19:11:25.281Z,100235.91
2024-02-21T19:13:58.553Z,100222.34
2024-02-21T19:16:26.959Z,100232.94
2024-02-21T19:18:54.555Z,100232.94
2024-02-21T19:21:21.077Z,100223.88
2024-02-21T19:23:47.511Z,100220.13
2024-02-21T19:26:14.065Z,100206.91
2024-02-21T19:28:40.769Z,100202.69
2024-02-21T19:31:07.274Z,100191.00
2024-02-21T19:33:33.782Z,100192.09
2024-02-21T19:36:01.145Z,100187.56
2024-02-21T19:38:28.512Z,100174.78
2024-02-21T19:40:55.432Z,100169.47
2024-02-21T19:43:23.787Z,100172.94
2024-02-21T19:45:50.588Z,100164.19
2024-02-21T19:48:19.685Z,100156.72
2024-02-21T19:50:46.658Z,100157.47
2024-02-21T19:53:13.945Z,100154.84
2024-02-21T19:55:41.016Z,100153.72
2024-02-21T19:58:07.586Z,100149.22
2024-02-21T20:00:34.128Z,100142.81
2024-02-21T20:03:00.822Z,100143.63
2024-02-21T20:05:27.458Z,100135.66
2024-02-21T20:07:54.300Z,100133.50
2024-02-21T20:10:21.048Z,100138.78
2024-02-21T20:12:52.590Z,100128.19
2024-02-21T20:15:19.244Z,100130.50
2024-02-21T20:17:48.397Z,100115.38
